| time (UTC) | temp C | wind direction | speed KPH | gust KPH | rain 1hr cm | rain 24hr cm | rain mn cm | humidity % | barometer mb |
| 20260504044507 | 14 | 125 | 0.0 | 0.0 | 0.00 | 0.00 | 0.00 | 63 | 1009.7 |
| 20260504043007 | 14 | 124 | 0.0 | 0.0 | 0.00 | 0.00 | 0.00 | 63 | 1009.6 |
| 20260504041509 | 14 | 132 | 0.0 | 0.0 | 0.00 | 0.00 | 0.00 | 63 | 1009.7 |
| 20260504040005 | 15 | 116 | 0.0 | 0.0 | 0.00 | 0.00 | 0.00 | 61 | 1009.7 |
| 20260504034504 | 15 | 112 | 0.0 | 0.0 | 0.00 | 0.00 | 0.00 | 60 | 1009.7 |
| 20260504033008 | 15 | 97 | 0.0 | 0.0 | 0.00 | 0.00 | 0.00 | 59 | 1009.8 |
| 20260504031505 | 16 | 92 | 0.0 | 3.2 | 0.00 | 0.00 | 0.00 | 58 | 1009.9 |
| 20260504030004 | 15 | 107 | 0.0 | 1.6 | 0.00 | 0.00 | 0.00 | 59 | 1010.0 |
| 20260504024616 | 15 | 96 | 0.0 | 0.0 | 0.00 | 0.00 | 0.00 | 59 | 1009.9 |
| 20260504023059 | 15 | 96 | 0.0 | 0.0 | 0.00 | 0.00 | 0.00 | 58 | 1009.9 |
| 20260504021558 | 16 | 98 | 0.0 | 0.0 | 0.00 | 0.00 | 0.00 | 57 | 1010.0 |
| 20260504020058 | 16 | 100 | 0.0 | 0.0 | 0.00 | 0.00 | 0.00 | 55 | 1009.9 |
| 20260504014604 | 16 | 119 | 0.0 | 0.0 | 0.00 | 0.00 | 0.00 | 54 | 1009.7 |
| 20260504013058 | 17 | 137 | 0.0 | 0.0 | 0.00 | 0.00 | 0.00 | 51 | 1009.7 |
| 20260504011555 | 18 | 137 | 0.0 | 0.0 | 0.00 | 0.00 | 0.00 | 48 | 1009.6 |
| 20260504004554 | 19 | 137 | 0.0 | 0.0 | 0.00 | 0.00 | 0.00 | 43 | 1009.4 |
| 20260504003056 | 20 | 128 | 0.0 | 0.0 | 0.00 | 0.00 | 0.00 | 42 | 1009.4 |
| 20260504001552 | 20 | 113 | 0.0 | 4.8 | 0.00 | 0.00 | 0.00 | 43 | 1009.4 |
| 20260504000128 | 20 | 113 | 0.0 | 12.9 | 0.00 | 0.00 | 0.00 | 42 | 1009.4 |
| 20260503234558 | 20 | 109 | 0.0 | 8.0 | 0.00 | 0.00 | 0.00 | 42 | 1009.5 |
| 20260503233049 | 20 | 71 | 0.0 | 19.3 | 0.00 | 0.00 | 0.00 | 41 | 1009.5 |
| 20260503231547 | 20 | 134 | 1.6 | 25.7 | 0.00 | 0.00 | 0.00 | 40 | 1009.8 |
| 20260503230147 | 20 | 105 | 0.0 | 22.5 | 0.00 | 0.00 | 0.00 | 42 | 1009.8 |
| 20260503224544 | 20 | 175 | 1.6 | 20.9 | 0.00 | 0.00 | 0.00 | 40 | 1010.0 |
| 20260503223044 | 20 | 105 | 0.0 | 19.3 | 0.00 | 0.00 | 0.00 | 40 | 1010.1 |
| 20260503221550 | 20 | 81 | 6.4 | 27.4 | 0.00 | 0.00 | 0.00 | 39 | 1010.0 |
| 20260503220041 | 20 | 74 | 8.0 | 27.4 | 0.00 | 0.00 | 0.00 | 41 | 1010.0 |
| 20260503214542 | 20 | 111 | 6.4 | 24.1 | 0.00 | 0.00 | 0.00 | 41 | 1010.1 |
| 20260503213035 | 20 | 98 | 9.7 | 40.2 | 0.00 | 0.00 | 0.00 | 42 | 1010.3 |
| 20260503211531 | 19 | 135 | 11.3 | 38.6 | 0.00 | 0.00 | 0.00 | 42 | 1010.6 |
| 20260503210029 | 19 | 73 | 9.7 | 43.5 | 0.00 | 0.00 | 0.00 | 42 | 1011.0 |
| 20260503204526 | 18 | 121 | 12.9 | 41.8 | 0.00 | 0.00 | 0.00 | 42 | 1011.3 |
| 20260503203038 | 18 | 101 | 11.3 | 32.2 | 0.00 | 0.00 | 0.00 | 41 | 1011.4 |
| 20260503201521 | 18 | 108 | 12.9 | 37.0 | 0.00 | 0.00 | 0.00 | 43 | 1011.8 |
| 20260503200017 | 17 | 61 | 17.7 | 38.6 | 0.00 | 0.00 | 0.00 | 48 | 1012.2 |
| 20260503194515 | 17 | 99 | 9.7 | 40.2 | 0.00 | 0.00 | 0.00 | 49 | 1012.6 |
| 20260503193012 | 17 | 132 | 14.5 | 41.8 | 0.00 | 0.00 | 0.00 | 49 | 1013.0 |
| 20260503191511 | 17 | 92 | 12.9 | 32.2 | 0.00 | 0.00 | 0.00 | 46 | 1013.2 |
| 20260503190009 | 16 | 60 | 12.9 | 35.4 | 0.00 | 0.00 | 0.00 | 46 | 1012.9 |
| 20260503184507 | 16 | 94 | 14.5 | 37.0 | 0.00 | 0.00 | 0.00 | 45 | 1012.9 |
| 20260503183004 | 16 | 100 | 22.5 | 51.5 | 0.00 | 0.00 | 0.00 | 44 | 1013.2 |
| 20260503181503 | 16 | 89 | 12.9 | 48.3 | 0.00 | 0.00 | 0.00 | 47 | 1013.1 |
| 20260503180114 | 16 | 44 | 11.3 | 33.8 | 0.00 | 0.00 | 0.00 | 47 | 1013.5 |
| 20260503174555 | 15 | 115 | 16.1 | 48.3 | 0.00 | 0.00 | 0.00 | 50 | 1013.9 |
| 20260503173058 | 15 | 74 | 12.9 | 32.2 | 0.00 | 0.00 | 0.00 | 55 | 1014.3 |
| 20260503171548 | 14 | 105 | 16.1 | 38.6 | 0.00 | 0.00 | 0.00 | 58 | 1014.7 |
| 20260503081522 | 8 | 86 | 0.0 | 11.3 | 0.00 | 0.03 | 0.00 | 52 | 1019.0 |
| 20260503071512 | 8 | 103 | 0.0 | 16.1 | 0.00 | 0.03 | 0.03 | 53 | 1019.3 |
| 20260503054610 | 8 | 128 | 0.0 | 14.5 | 0.00 | 0.03 | 0.03 | 53 | 1020.1 |
| 20260503053056 | 8 | 113 | 0.0 | 11.3 | 0.00 | 0.03 | 0.03 | 53 | 1020.2 |
| 20260503051554 | 8 | 115 | 1.6 | 11.3 | 0.00 | 0.03 | 0.03 | 53 | 1020.3 |
| 20260503050053 | 8 | 121 | 1.6 | 12.9 | 0.00 | 0.03 | 0.03 | 54 | 1020.4 |